Time;durP1;ratioP1;P1;durP2;ratioP2;P2;SDS_P1;SDS_P2;PMS_P1;PMS_P2;Temp;Humidity;BMP_temperature;BMP_pressure;BME280_temperature;BME280_humidity;BME280_pressure;Samples;Min_cycle;Max_cycle;Signal;HPM_P1;HPM_P2
2022/08/03 00:02:23;;;;;;;2.13;1.92;;;;;19.50;94355.00;;;;7396143;19;20144;-72
2022/08/03 00:04:57;;;;;;;2.13;1.85;;;;;19.50;94354.00;;;;7395308;19;20124;-73
2022/08/03 00:07:32;;;;;;;2.63;1.70;;;;;19.50;94355.00;;;;7393241;19;20135;-72
2022/08/03 00:10:07;;;;;;;2.17;1.80;;;;;19.40;94347.00;;;;7395578;19;20595;-74
2022/08/03 00:12:38;;;;;;;2.65;1.60;;;;;19.50;94351.00;;;;7395906;19;20140;-72
2022/08/03 00:15:06;;;;;;;4.53;1.95;;;;;19.40;94351.00;;;;7395918;19;20200;-72
2022/08/03 00:17:44;;;;;;;1.92;1.58;;;;;19.30;94353.00;;;;7393594;19;20235;-73
2022/08/03 00:20:25;;;;;;;1.95;1.80;;;;;19.30;94354.00;;;;7394452;19;20121;-72
2022/08/03 00:22:59;;;;;;;2.42;1.58;;;;;19.30;94354.00;;;;7395687;19;20503;-73
2022/08/03 00:25:27;;;;;;;1.77;1.67;;;;;19.30;94347.00;;;;7393520;19;20646;-71
2022/08/03 00:27:59;;;;;;;3.95;1.60;;;;;19.40;94342.00;;;;7392179;19;20750;-72
2022/08/03 00:30:35;;;;;;;2.70;2.03;;;;;19.40;94340.00;;;;7394741;19;20140;-72
2022/08/03 00:33:03;;;;;;;3.83;2.17;;;;;19.60;94345.00;;;;7396118;19;20595;-73
2022/08/03 00:35:30;;;;;;;1.88;1.70;;;;;19.40;94341.00;;;;7393584;19;20689;-74
2022/08/03 00:38:18;;;;;;;3.70;1.80;;;;;19.40;94338.00;;;;7393410;19;20139;-73
2022/08/03 00:40:46;;;;;;;2.60;1.63;;;;;19.40;94327.00;;;;7393118;19;20129;-72
2022/08/03 00:43:26;;;;;;;1.70;1.60;;;;;19.40;94332.00;;;;7395243;19;20143;-74
2022/08/03 00:45:53;;;;;;;1.80;1.70;;;;;19.60;94334.00;;;;7394713;19;20140;-74
2022/08/03 00:48:27;;;;;;;4.32;1.92;;;;;19.30;94337.00;;;;7392133;19;20149;-73
2022/08/03 00:50:59;;;;;;;4.18;1.70;;;;;19.20;94332.00;;;;7393627;19;20599;-73
2022/08/03 00:53:27;;;;;;;2.40;2.05;;;;;19.30;94333.00;;;;7391476;19;20160;-72
2022/08/03 00:56:01;;;;;;;2.22;1.73;;;;;19.20;94329.00;;;;7393222;19;20144;-73
2022/08/03 00:58:29;;;;;;;2.53;1.80;;;;;19.30;94329.00;;;;7393279;19;20152;-72
2022/08/03 01:00:57;;;;;;;3.03;1.60;;;;;19.40;94321.00;;;;7393585;19;20137;-75
2022/08/03 01:03:31;;;;;;;5.95;1.67;;;;;19.30;94329.00;;;;7390925;19;20148;-75
2022/08/03 01:06:21;;;;;;;2.72;1.85;;;;;19.30;94326.00;;;;7389821;19;20178;-75
2022/08/03 01:09:08;;;;;;;3.97;1.98;;;;;19.30;94323.00;;;;7391594;19;20599;-75
2022/08/03 01:11:43;;;;;;;2.00;1.80;;;;;19.30;94319.00;;;;7391805;19;20733;-75
2022/08/03 01:14:54;;;;;;;2.88;1.98;;;;;19.20;94324.00;;;;7393082;19;20141;-75
2022/08/03 01:17:38;;;;;;;4.43;1.80;;;;;19.20;94317.00;;;;7389423;19;20150;-75
2022/08/03 01:20:17;;;;;;;6.60;1.98;;;;;19.40;94307.00;;;;7393093;19;20614;-75
2022/08/03 01:23:07;;;;;;;4.13;1.70;;;;;19.30;94312.00;;;;7394031;19;20129;-74
2022/08/03 01:26:24;;;;;;;2.28;1.92;;;;;19.40;94304.00;;;;7392116;19;20144;-75
2022/08/03 01:29:29;;;;;;;4.22;1.70;;;;;19.30;94302.00;;;;7393354;19;20460;-74
2022/08/03 01:32:09;;;;;;;2.38;1.75;;;;;19.30;94308.00;;;;7393028;19;20608;-74
2022/08/03 01:35:17;;;;;;;3.17;1.80;;;;;19.10;94306.00;;;;7391613;19;20257;-75
2022/08/03 01:37:59;;;;;;;4.03;2.00;;;;;19.20;94295.00;;;;7392713;19;20137;-74
2022/08/03 01:40:33;;;;;;;3.42;1.90;;;;;19.30;94297.00;;;;7390891;19;20658;-74
2022/08/03 01:43:10;;;;;;;1.55;1.45;;;;;19.30;94297.00;;;;7392491;19;20133;-74
2022/08/03 01:45:39;;;;;;;2.05;1.85;;;;;19.10;94295.00;;;;7390731;19;20576;-74
2022/08/03 01:48:09;;;;;;;2.30;1.90;;;;;19.10;94297.00;;;;7389608;19;20279;-74
2022/08/03 01:50:46;;;;;;;1.85;1.75;;;;;19.20;94293.00;;;;7391708;19;20156;-74
2022/08/03 01:53:15;;;;;;;2.20;1.98;;;;;19.20;94291.00;;;;7392964;19;20808;-74
2022/08/03 01:55:45;;;;;;;2.03;1.83;;;;;19.20;94286.00;;;;7390676;19;20217;-73
2022/08/03 01:58:22;;;;;;;2.22;1.80;;;;;19.10;94295.00;;;;7390384;19;20156;-74
2022/08/03 02:00:50;;;;;;;2.40;1.90;;;;;19.20;94285.00;;;;7391882;19;20604;-73
2022/08/03 02:03:19;;;;;;;2.58;1.80;;;;;19.30;94292.00;;;;7391067;19;20142;-75
2022/08/03 02:05:56;;;;;;;2.15;1.50;;;;;19.20;94287.00;;;;7387454;19;20863;-73
2022/08/03 02:08:46;;;;;;;3.30;1.73;;;;;19.40;94286.00;;;;7388936;19;20607;-74
2022/08/03 02:11:20;;;;;;;2.20;1.88;;;;;19.30;94281.00;;;;7393696;19;20121;-75
2022/08/03 02:13:49;;;;;;;4.60;2.00;;;;;19.30;94286.00;;;;7392704;19;20121;-75
2022/08/03 02:16:18;;;;;;;2.13;1.80;;;;;19.40;94283.00;;;;7393889;19;20550;-75
2022/08/03 02:18:54;;;;;;;1.70;1.58;;;;;19.20;94291.00;;;;7398715;19;20148;-75
2022/08/03 02:21:23;;;;;;;2.85;1.98;;;;;19.30;94277.00;;;;7400552;19;20140;-75
2022/08/03 02:24:10;;;;;;;2.03;1.90;;;;;19.30;94280.00;;;;7397058;19;20147;-75
2022/08/03 02:26:45;;;;;;;1.70;1.60;;;;;19.30;94284.00;;;;7399396;19;20734;-75
2022/08/03 02:29:24;;;;;;;3.20;2.10;;;;;19.10;94283.00;;;;7398265;19;20630;-76
2022/08/03 02:32:11;;;;;;;2.78;1.85;;;;;19.20;94285.00;;;;7397331;19;20167;-75
2022/08/03 02:34:41;;;;;;;3.80;1.95;;;;;19.30;94286.00;;;;7397975;19;20121;-75
2022/08/03 02:37:20;;;;;;;2.75;1.88;;;;;19.20;94277.00;;;;7396734;19;20148;-75
2022/08/03 02:39:52;;;;;;;2.42;1.90;;;;;19.30;94281.00;;;;7395791;19;20526;-75
2022/08/03 02:42:27;;;;;;;2.47;1.95;;;;;19.20;94279.00;;;;7398357;19;20162;-75
2022/08/03 02:44:57;;;;;;;2.33;1.70;;;;;19.20;94275.00;;;;7397482;19;20603;-75
2022/08/03 02:47:29;;;;;;;2.35;2.08;;;;;19.30;94275.00;;;;7394986;19;20133;-76
2022/08/03 02:50:22;;;;;;;7.95;1.98;;;;;19.30;94272.00;;;;7395920;19;20152;-75
2022/08/03 02:52:51;;;;;;;3.47;1.90;;;;;19.30;94279.00;;;;7398528;19;20302;-74
2022/08/03 02:55:26;;;;;;;3.40;2.13;;;;;19.40;94280.00;;;;7396499;19;20575;-75
2022/08/03 02:57:55;;;;;;;2.83;1.98;;;;;19.40;94273.00;;;;7396735;19;20789;-75
2022/08/03 03:00:29;;;;;;;3.92;1.80;;;;;19.30;94270.00;;;;7396456;19;20258;-75
2022/08/03 03:03:05;;;;;;;1.88;1.67;;;;;19.30;94275.00;;;;7396233;19;20206;-75
2022/08/03 03:05:36;;;;;;;2.20;2.00;;;;;19.30;94268.00;;;;7394734;19;20204;-75
2022/08/03 03:08:25;;;;;;;2.55;2.00;;;;;19.40;94272.00;;;;7394837;19;20133;-75
2022/08/03 03:11:00;;;;;;;2.50;1.60;;;;;19.20;94271.00;;;;7399238;19;20153;-75
2022/08/03 03:13:35;;;;;;;2.33;1.80;;;;;19.10;94277.00;;;;7396066;19;20890;-74
2022/08/03 03:16:11;;;;;;;2.58;2.00;;;;;19.20;94269.00;;;;7392454;19;20184;-75
2022/08/03 03:18:48;;;;;;;2.00;1.80;;;;;19.10;94265.00;;;;7398100;19;20563;-75
2022/08/03 03:21:18;;;;;;;4.90;2.00;;;;;19.20;94265.00;;;;7398227;19;20133;-75
2022/08/03 03:23:53;;;;;;;3.17;2.05;;;;;19.40;94269.00;;;;7396342;19;20132;-75
2022/08/03 03:26:21;;;;;;;1.80;1.63;;;;;19.50;94263.00;;;;7394235;19;20144;-74
2022/08/03 03:28:49;;;;;;;3.90;2.10;;;;;19.40;94272.00;;;;7397034;19;20608;-75
2022/08/03 03:31:27;;;;;;;1.90;1.70;;;;;19.30;94271.00;;;;7394673;19;20135;-75
2022/08/03 03:33:57;;;;;;;3.42;2.00;;;;;19.30;94266.00;;;;7395798;19;20231;-75
2022/08/03 03:36:33;;;;;;;2.85;1.95;;;;;19.30;94262.00;;;;7394740;19;20615;-75
2022/08/03 03:39:01;;;;;;;3.67;1.80;;;;;19.20;94263.00;;;;7396841;19;20157;-75
2022/08/03 03:41:43;;;;;;;4.65;2.58;;;;;19.20;94264.00;;;;7397242;19;20117;-75
2022/08/03 03:44:17;;;;;;;3.08;1.98;;;;;19.20;94266.00;;;;7392900;19;20143;-76
2022/08/03 03:46:45;;;;;;;3.28;2.15;;;;;19.30;94259.00;;;;7396553;19;20133;-75
2022/08/03 03:49:13;;;;;;;2.97;2.20;;;;;19.30;94260.00;;;;7394640;19;20611;-75
2022/08/03 03:51:53;;;;;;;5.10;1.83;;;;;19.10;94257.00;;;;7393271;19;20173;-74
2022/08/03 03:54:21;;;;;;;3.25;1.90;;;;;19.10;94256.00;;;;7395633;19;20121;-74
2022/08/03 03:56:56;;;;;;;2.20;2.00;;;;;19.10;94259.00;;;;7396368;19;20124;-76
2022/08/03 03:59:28;;;;;;;3.53;2.13;;;;;19.20;94260.00;;;;7392499;19;20248;-75
2022/08/03 04:02:04;;;;;;;4.55;2.00;;;;;19.20;94255.00;;;;7392499;19;20180;-75
2022/08/03 04:13:42;;;;;;;2.53;2.05;;;;;19.30;94269.00;;;;7394895;19;20157;-75
2022/08/03 04:16:20;;;;;;;4.95;2.22;;;;;19.40;94264.00;;;;7391749;19;20184;-75
2022/08/03 04:19:04;;;;;;;2.58;1.88;;;;;19.30;94275.00;;;;7394937;19;20174;-75
2022/08/03 04:21:36;;;;;;;7.85;2.08;;;;;19.40;94265.00;;;;7393255;19;20150;-75
2022/08/03 04:24:12;;;;;;;8.75;2.95;;;;;19.40;94267.00;;;;7393834;19;20603;-76
2022/08/03 04:26:42;;;;;;;20.08;3.85;;;;;19.40;94273.00;;;;7396406;19;20153;-75
2022/08/03 04:29:14;;;;;;;23.23;3.13;;;;;19.40;94268.00;;;;7392370;19;20145;-75
2022/08/03 04:31:49;;;;;;;13.80;2.90;;;;;19.40;94273.00;;;;7394149;19;20220;-75
2022/08/03 04:34:18;;;;;;;9.82;2.85;;;;;19.40;94276.00;;;;7394038;19;20145;-75
2022/08/03 04:36:49;;;;;;;12.50;2.60;;;;;19.20;94279.00;;;;7391915;19;20155;-75
2022/08/03 04:39:28;;;;;;;5.95;2.15;;;;;19.50;94277.00;;;;7394266;19;20129;-75
2022/08/03 04:42:04;;;;;;;4.10;1.92;;;;;19.70;94277.00;;;;7393463;19;20580;-76
2022/08/03 04:44:41;;;;;;;4.78;2.13;;;;;19.60;94279.00;;;;7392844;19;20148;-75
2022/08/03 04:47:10;;;;;;;5.32;2.20;;;;;19.70;94281.00;;;;7395666;19;20202;-75
2022/08/03 04:49:45;;;;;;;5.68;2.13;;;;;19.80;94281.00;;;;7390851;19;20120;-75
2022/08/03 04:52:15;;;;;;;10.63;2.17;;;;;19.80;94284.00;;;;7391833;19;20208;-76
2022/08/03 04:54:48;;;;;;;3.25;1.98;;;;;19.90;94276.00;;;;7393337;19;20614;-76
2022/08/03 04:57:22;;;;;;;4.38;2.20;;;;;20.00;94286.00;;;;7394661;19;20603;-77
2022/08/03 04:59:55;;;;;;;5.88;2.03;;;;;20.00;94288.00;;;;7385233;19;20230;-75
2022/08/03 05:02:30;;;;;;;2.22;2.03;;;;;20.10;94282.00;;;;7390698;19;20650;-75
2022/08/03 05:04:59;;;;;;;2.45;2.25;;;;;20.20;94287.00;;;;7392863;19;20174;-76
2022/08/03 05:07:26;;;;;;;2.30;2.10;;;;;20.30;94295.00;;;;7393225;19;20208;-76
2022/08/03 05:10:07;;;;;;;2.97;1.85;;;;;20.40;94292.00;;;;7389923;19;20609;-76
2022/08/03 05:12:44;;;;;;;3.88;2.20;;;;;20.50;94293.00;;;;7394107;19;20149;-75
2022/08/03 05:15:32;;;;;;;5.43;2.33;;;;;20.70;94294.00;;;;7391761;19;20156;-75
2022/08/03 05:18:09;;;;;;;2.30;2.10;;;;;21.10;94286.00;;;;7392608;19;20133;-75
2022/08/03 05:20:43;;;;;;;2.75;2.20;;;;;21.50;94296.00;;;;7391153;19;20151;-76
2022/08/03 05:23:13;;;;;;;4.22;1.88;;;;;21.70;94288.00;;;;7394105;19;20653;-76
2022/08/03 05:25:40;;;;;;;3.65;2.13;;;;;21.90;94291.00;;;;7392334;19;20166;-74
2022/08/03 05:28:16;;;;;;;2.90;2.10;;;;;22.10;94288.00;;;;7391252;19;20153;-75
2022/08/03 05:30:46;;;;;;;2.20;1.95;;;;;22.30;94296.00;;;;7391185;19;20216;-75
2022/08/03 05:33:13;;;;;;;2.78;1.80;;;;;22.50;94292.00;;;;7393467;19;20133;-72
2022/08/03 05:35:50;;;;;;;2.22;2.03;;;;;22.60;94282.00;;;;7397297;19;20130;-73
2022/08/03 05:38:30;;;;;;;2.50;2.30;;;;;22.70;94284.00;;;;7396868;19;20125;-74
2022/08/03 05:41:05;;;;;;;3.40;1.90;;;;;22.80;94288.00;;;;7397822;19;20215;-75
2022/08/03 05:43:53;;;;;;;5.10;1.90;;;;;22.80;94288.00;;;;7392831;19;20129;-76
2022/08/03 05:46:27;;;;;;;2.33;2.13;;;;;22.90;94286.00;;;;7390274;19;20192;-74
2022/08/03 05:48:57;;;;;;;5.35;2.15;;;;;23.10;94299.00;;;;7394945;19;20145;-76
2022/08/03 05:51:27;;;;;;;4.05;2.03;;;;;23.10;94292.00;;;;7400283;19;20572;-75
2022/08/03 05:54:03;;;;;;;2.35;2.15;;;;;23.30;94290.00;;;;7397739;19;20180;-74
2022/08/03 05:56:31;;;;;;;2.20;2.00;;;;;23.40;94288.00;;;;7397788;19;20156;-74
2022/08/03 05:59:04;;;;;;;4.93;2.10;;;;;23.50;94293.00;;;;7399409;19;20133;-77
2022/08/03 06:01:58;;;;;;;2.22;2.00;;;;;23.50;94298.00;;;;7396828;19;20148;-77
2022/08/03 06:04:26;;;;;;;2.30;1.90;;;;;23.70;94294.00;;;;7400320;19;20137;-73
2022/08/03 06:07:00;;;;;;;3.70;1.88;;;;;23.80;94296.00;;;;7398962;19;20179;-73
2022/08/03 06:09:28;;;;;;;3.63;2.00;;;;;23.90;94297.00;;;;7393635;19;20141;-74
2022/08/03 06:12:16;;;;;;;2.17;1.98;;;;;24.00;94299.00;;;;7395562;19;20141;-74
2022/08/03 06:15:04;;;;;;;2.88;2.20;;;;;24.20;94293.00;;;;7397835;19;20129;-73
2022/08/03 06:17:49;;;;;;;2.17;1.80;;;;;24.40;94295.00;;;;7399673;19;20149;-74
2022/08/03 06:20:30;;;;;;;2.70;1.90;;;;;24.40;94293.00;;;;7396077;19;20213;-74
2022/08/03 06:23:01;;;;;;;3.40;2.33;;;;;24.60;94287.00;;;;7397152;19;20140;-74
2022/08/03 06:25:42;;;;;;;5.00;1.80;;;;;24.70;94291.00;;;;7399164;19;20165;-74
2022/08/03 06:28:13;;;;;;;2.53;1.77;;;;;24.90;94293.00;;;;7397696;19;20579;-74
2022/08/03 06:31:06;;;;;;;3.88;2.10;;;;;24.90;94292.00;;;;7398046;19;20149;-74
2022/08/03 06:33:36;;;;;;;2.60;1.98;;;;;25.00;94299.00;;;;7398083;19;20611;-74
2022/08/03 06:36:31;;;;;;;2.97;1.73;;;;;25.30;94287.00;;;;7395478;19;20137;-75
2022/08/03 06:39:06;;;;;;;1.63;1.52;;;;;25.50;94291.00;;;;7398619;19;20477;-75
2022/08/03 06:41:44;;;;;;;2.40;1.73;;;;;25.70;94293.00;;;;7397070;19;20452;-75
2022/08/03 06:44:21;;;;;;;4.82;1.70;;;;;25.70;94293.00;;;;7396236;19;20728;-76
2022/08/03 06:46:54;;;;;;;2.75;1.80;;;;;25.70;94298.00;;;;7397978;19;20163;-74
2022/08/03 06:49:25;;;;;;;2.70;1.70;;;;;25.80;94299.00;;;;7395568;19;20132;-74
2022/08/03 06:51:53;;;;;;;2.00;1.70;;;;;25.80;94305.00;;;;7395257;19;20164;-74
2022/08/03 06:54:32;;;;;;;2.00;1.60;;;;;25.80;94307.00;;;;7395969;19;20140;-75
2022/08/03 06:57:03;;;;;;;6.43;1.85;;;;;25.90;94303.00;;;;7398581;19;20531;-74
2022/08/03 06:59:39;;;;;;;1.95;1.40;;;;;26.00;94306.00;;;;7394876;19;20144;-73
2022/08/03 07:02:27;;;;;;;1.65;1.52;;;;;26.10;94304.00;;;;7394219;19;20168;-75
2022/08/03 07:05:01;;;;;;;5.60;1.77;;;;;25.90;94309.00;;;;7397285;19;20133;-73
2022/08/03 07:07:30;;;;;;;3.00;1.50;;;;;26.10;94306.00;;;;7398725;19;20478;-74
2022/08/03 07:09:57;;;;;;;4.63;1.73;;;;;26.40;94310.00;;;;7390605;19;20605;-74
2022/08/03 07:12:34;;;;;;;1.40;1.30;;;;;26.50;94314.00;;;;7395711;19;20568;-75
2022/08/03 07:15:29;;;;;;;1.88;1.70;;;;;26.50;94310.00;;;;7395103;19;20178;-73
2022/08/03 07:18:28;;;;;;;3.97;2.20;;;;;26.70;94304.00;;;;7394221;19;20619;-74
2022/08/03 07:20:57;;;;;;;2.22;1.77;;;;;26.80;94306.00;;;;7395351;19;20152;-74
2022/08/03 07:23:31;;;;;;;2.28;1.83;;;;;27.10;94310.00;;;;7397794;19;20172;-74
2022/08/03 07:25:59;;;;;;;3.58;1.67;;;;;27.10;94302.00;;;;7394757;19;20204;-74
2022/08/03 07:28:27;;;;;;;1.90;1.80;;;;;27.20;94310.00;;;;7393639;19;20153;-74
2022/08/03 07:31:01;;;;;;;2.63;1.92;;;;;27.20;94311.00;;;;7396681;19;20595;-74
2022/08/03 07:33:28;;;;;;;1.95;1.80;;;;;27.10;94316.00;;;;7394999;19;20151;-76
2022/08/03 07:35:58;;;;;;;3.10;1.85;;;;;27.10;94322.00;;;;7393585;19;20132;-74
2022/08/03 07:38:35;;;;;;;2.22;2.03;;;;;27.10;94313.00;;;;7393482;19;20234;-76
2022/08/03 07:41:03;;;;;;;2.65;1.70;;;;;27.30;94314.00;;;;7395103;19;20140;-76
2022/08/03 07:43:32;;;;;;;3.92;1.83;;;;;27.40;94310.00;;;;7394516;19;20145;-75
2022/08/03 07:46:06;;;;;;;1.80;1.70;;;;;27.40;94315.00;;;;7392538;19;20140;-75
2022/08/03 07:48:36;;;;;;;2.58;1.55;;;;;27.50;94316.00;;;;7394482;19;20133;-76
2022/08/03 07:51:04;;;;;;;4.65;2.00;;;;;27.80;94316.00;;;;7393641;19;20136;-75
2022/08/03 07:53:39;;;;;;;1.80;1.70;;;;;28.00;94315.00;;;;7394868;19;20144;-75
2022/08/03 07:56:15;;;;;;;1.63;1.52;;;;;28.10;94321.00;;;;7394807;19;20607;-75
2022/08/03 07:58:50;;;;;;;1.77;1.67;;;;;28.20;94315.00;;;;7395434;19;20512;-75
2022/08/03 08:01:22;;;;;;;2.15;1.80;;;;;28.40;94323.00;;;;7394332;19;20129;-76
2022/08/03 08:03:58;;;;;;;2.08;1.70;;;;;28.30;94314.00;;;;7392212;19;20148;-73
2022/08/03 08:06:26;;;;;;;1.83;1.73;;;;;28.30;94314.00;;;;7392659;19;20188;-74
2022/08/03 08:08:58;;;;;;;2.03;1.75;;;;;28.70;94322.00;;;;7394340;19;20149;-76
2022/08/03 08:11:33;;;;;;;2.15;1.80;;;;;28.60;94317.00;;;;7393137;19;20666;-75
2022/08/03 08:14:06;;;;;;;2.80;1.50;;;;;28.90;94308.00;;;;7392181;19;20611;-77
2022/08/03 08:16:48;;;;;;;3.03;1.70;;;;;29.10;94307.00;;;;7393336;19;20162;-78
2022/08/03 08:19:23;;;;;;;2.17;1.77;;;;;29.10;94303.00;;;;7394404;19;20467;-75
2022/08/03 08:22:03;;;;;;;1.65;1.55;;;;;29.00;94305.00;;;;7392350;19;20144;-74
2022/08/03 08:24:32;;;;;;;1.70;1.60;;;;;28.60;94311.00;;;;7391114;19;20141;-73
2022/08/03 08:27:10;;;;;;;2.20;2.00;;;;;28.90;94302.00;;;;7393665;19;20144;-75
2022/08/03 08:29:38;;;;;;;1.92;1.80;;;;;29.20;94306.00;;;;7393214;19;20160;-74
2022/08/03 08:32:25;;;;;;;1.63;1.52;;;;;29.70;94300.00;;;;7395503;19;20595;-75
2022/08/03 08:35:03;;;;;;;1.70;1.60;;;;;29.70;94310.00;;;;7392989;19;20485;-74
2022/08/03 08:37:33;;;;;;;1.88;1.77;;;;;29.80;94316.00;;;;7393748;19;20152;-77
2022/08/03 08:40:08;;;;;;;2.60;1.98;;;;;29.90;94314.00;;;;7393716;19;20635;-75
2022/08/03 08:42:39;;;;;;;1.70;1.60;;;;;30.20;94317.00;;;;7392811;19;20155;-75
2022/08/03 08:45:24;;;;;;;1.77;1.67;;;;;30.10;94313.00;;;;7394164;19;20517;-76
2022/08/03 08:48:02;;;;;;;4.68;1.50;;;;;29.90;94314.00;;;;7392130;19;20120;-76
2022/08/03 08:50:38;;;;;;;2.55;1.60;;;;;29.90;94314.00;;;;7390478;19;20136;-76
2022/08/03 08:53:12;;;;;;;1.63;1.52;;;;;29.80;94311.00;;;;7395797;19;20497;-74
2022/08/03 08:55:47;;;;;;;4.78;1.70;;;;;30.10;94307.00;;;;7392715;19;20124;-73
2022/08/03 08:58:30;;;;;;;1.70;1.60;;;;;30.00;94309.00;;;;7394089;19;20610;-74
2022/08/03 09:00:59;;;;;;;1.60;1.50;;;;;30.20;94311.00;;;;7392213;19;20511;-75
2022/08/03 09:03:33;;;;;;;1.63;1.52;;;;;30.10;94311.00;;;;7391494;19;20184;-74
2022/08/03 09:06:02;;;;;;;1.75;1.65;;;;;30.00;94309.00;;;;7391380;19;20137;-74
2022/08/03 09:08:31;;;;;;;2.15;1.80;;;;;30.40;94315.00;;;;7390884;19;20133;-73
2022/08/03 09:11:06;;;;;;;1.88;1.73;;;;;30.40;94315.00;;;;7391439;19;20940;-74
2022/08/03 09:13:35;;;;;;;1.70;1.60;;;;;30.40;94313.00;;;;7391528;19;20596;-76
2022/08/03 09:16:22;;;;;;;2.35;1.60;;;;;30.60;94312.00;;;;7389209;19;20183;-74
2022/08/03 09:19:15;;;;;;;3.05;1.55;;;;;30.40;94317.00;;;;7391322;19;20208;-75
2022/08/03 09:21:43;;;;;;;1.45;1.30;;;;;30.40;94321.00;;;;7392363;19;20173;-76
2022/08/03 09:24:24;;;;;;;2.33;1.90;;;;;30.30;94327.00;;;;7389446;19;20215;-73
2022/08/03 09:27:12;;;;;;;4.85;1.90;;;;;30.50;94313.00;;;;7390638;19;20149;-77
2022/08/03 09:29:52;;;;;;;2.58;2.38;;;;;30.40;94324.00;;;;7390641;19;20655;-76
2022/08/03 09:32:22;;;;;;;2.30;2.10;;;;;30.10;94316.00;;;;7391255;19;20158;-76
2022/08/03 09:35:06;;;;;;;2.30;2.08;;;;;30.40;94320.00;;;;7390619;19;20583;-74
2022/08/03 09:37:38;;;;;;;2.35;1.67;;;;;30.10;94320.00;;;;7390885;19;20504;-75
2022/08/03 09:40:39;;;;;;;1.60;1.50;;;;;30.20;94317.00;;;;7390662;19;20152;-74
2022/08/03 09:43:08;;;;;;;1.83;1.65;;;;;30.50;94307.00;;;;7390604;19;20607;-75
2022/08/03 09:45:43;;;;;;;2.50;1.70;;;;;30.90;94310.00;;;;7391144;19;20483;-75
2022/08/03 09:48:23;;;;;;;3.58;1.90;;;;;31.20;94304.00;;;;7391091;19;20129;-74
2022/08/03 09:51:03;;;;;;;3.03;1.83;;;;;31.00;94305.00;;;;7389546;19;20587;-74
2022/08/03 09:53:51;;;;;;;2.33;2.05;;;;;30.80;94307.00;;;;7390347;19;20144;-75
2022/08/03 09:56:44;;;;;;;2.45;2.17;;;;;31.00;94309.00;;;;7391897;19;20129;-75
2022/08/03 09:59:21;;;;;;;2.85;2.13;;;;;30.90;94305.00;;;;7389134;19;20148;-73
2022/08/03 10:02:01;;;;;;;4.03;1.90;;;;;31.20;94304.00;;;;7391972;19;20140;-75
2022/08/03 10:04:31;;;;;;;1.92;1.73;;;;;31.00;94306.00;;;;7389652;19;20481;-75
2022/08/03 10:07:09;;;;;;;2.00;1.80;;;;;31.30;94296.00;;;;7390026;19;20140;-73
2022/08/03 10:09:37;;;;;;;4.57;1.80;;;;;31.10;94302.00;;;;7391031;19;20141;-76
2022/08/03 10:12:13;;;;;;;2.28;2.08;;;;;31.50;94306.00;;;;7390276;19;20649;-75
2022/08/03 10:14:44;;;;;;;2.00;1.80;;;;;31.60;94304.00;;;;7388558;19;20655;-75
2022/08/03 10:17:27;;;;;;;2.17;1.98;;;;;31.80;94301.00;;;;7388904;19;20152;-75
2022/08/03 10:19:56;;;;;;;2.08;1.83;;;;;31.90;94299.00;;;;7390095;19;20156;-76
2022/08/03 10:22:38;;;;;;;2.88;1.80;;;;;32.00;94291.00;;;;7392499;19;20116;-75
2022/08/03 10:25:11;;;;;;;2.13;1.92;;;;;32.10;94284.00;;;;7391091;19;20148;-74
2022/08/03 10:27:51;;;;;;;2.20;2.00;;;;;32.10;94283.00;;;;7388496;19;20635;-76
2022/08/03 10:30:19;;;;;;;3.83;2.00;;;;;32.30;94285.00;;;;7385772;19;20145;-75
2022/08/03 10:33:13;;;;;;;2.05;1.90;;;;;32.90;94280.00;;;;7390716;19;20274;-75
2022/08/03 10:36:04;;;;;;;2.20;2.00;;;;;32.90;94285.00;;;;7394731;19;20911;-74
2022/08/03 10:38:52;;;;;;;2.25;2.08;;;;;32.30;94280.00;;;;7397336;19;20163;-75
2022/08/03 10:41:24;;;;;;;2.00;1.80;;;;;33.10;94287.00;;;;7397454;19;20579;-75
2022/08/03 10:44:12;;;;;;;3.25;1.90;;;;;33.20;94273.00;;;;7393270;19;20132;-74
2022/08/03 10:46:49;;;;;;;2.00;1.90;;;;;33.60;94262.00;;;;7395648;19;20614;-76
2022/08/03 10:49:32;;;;;;;4.25;2.05;;;;;33.40;94274.00;;;;7395847;19;20954;-73
2022/08/03 10:52:03;;;;;;;3.08;1.67;;;;;33.30;94267.00;;;;7395216;19;20174;-75
2022/08/03 10:57:52;;;;;;;2.25;2.05;;;;;33.70;94276.00;;;;7389974;19;20127;-74
2022/08/03 11:00:46;;;;;;;2.80;2.10;;;;;33.40;94271.00;;;;7394211;19;20151;-74
2022/08/03 11:03:14;;;;;;;1.98;1.75;;;;;32.90;94270.00;;;;7396046;19;20155;-74
2022/08/03 11:05:51;;;;;;;6.18;2.00;;;;;32.70;94275.00;;;;7393752;19;20144;-73
2022/08/03 11:08:20;;;;;;;2.47;1.98;;;;;32.90;94277.00;;;;7394692;19;20140;-76
2022/08/03 11:10:50;;;;;;;2.28;2.08;;;;;32.60;94272.00;;;;7395385;19;20623;-73
2022/08/03 11:13:30;;;;;;;2.10;1.77;;;;;32.60;94265.00;;;;7396536;19;20514;-74
2022/08/03 11:16:19;;;;;;;4.03;2.08;;;;;33.40;94256.00;;;;7391596;19;20802;-74
2022/08/03 11:22:02;;;;;;;1.85;1.75;;;;;34.40;94247.00;;;;7394316;19;20166;-76
2022/08/03 11:24:42;;;;;;;2.45;1.90;;;;;34.30;94246.00;;;;7396333;19;20591;-75
2022/08/03 11:27:21;;;;;;;2.05;1.85;;;;;34.10;94246.00;;;;7396593;19;20136;-76
2022/08/03 11:30:01;;;;;;;2.45;1.83;;;;;34.40;94245.00;;;;7395692;19;20574;-74
2022/08/03 11:32:43;;;;;;;3.30;1.92;;;;;34.10;94250.00;;;;7393898;19;20148;-75
2022/08/03 11:35:22;;;;;;;2.40;2.20;;;;;33.30;94248.00;;;;7396034;19;20532;-75
2022/08/03 11:37:59;;;;;;;5.45;1.70;;;;;33.20;94247.00;;;;7393248;19;20215;-74
2022/08/03 11:40:53;;;;;;;3.92;2.10;;;;;33.70;94251.00;;;;7393846;19;20156;-75
2022/08/03 11:43:25;;;;;;;4.15;2.00;;;;;34.20;94245.00;;;;7396732;19;20145;-77
2022/08/03 11:46:04;;;;;;;1.80;1.70;;;;;34.10;94251.00;;;;7392068;19;20155;-75
2022/08/03 11:48:43;;;;;;;2.17;1.98;;;;;34.30;94249.00;;;;7393941;19;20172;-74
2022/08/03 11:51:27;;;;;;;1.85;1.75;;;;;34.30;94247.00;;;;7393067;19;20136;-75
2022/08/03 11:54:01;;;;;;;2.50;1.83;;;;;35.00;94238.00;;;;7393113;19;20159;-75
2022/08/03 11:56:47;;;;;;;3.08;2.30;;;;;35.10;94251.00;;;;7395187;19;20128;-75
2022/08/03 11:59:17;;;;;;;3.35;1.98;;;;;34.60;94240.00;;;;7395800;19;20143;-76
2022/08/03 12:01:51;;;;;;;2.13;1.88;;;;;34.90;94242.00;;;;7391721;19;20544;-75
2022/08/03 12:04:19;;;;;;;4.28;2.10;;;;;35.00;94229.00;;;;7392521;19;20584;-74
2022/08/03 12:07:00;;;;;;;2.65;1.80;;;;;35.20;94223.00;;;;7394406;19;20148;-75
2022/08/03 12:09:40;;;;;;;2.05;1.77;;;;;35.70;94235.00;;;;7395595;19;20143;-74
2022/08/03 12:12:08;;;;;;;2.00;1.83;;;;;35.80;94226.00;;;;7392523;19;20129;-75
2022/08/03 12:14:49;;;;;;;2.00;1.90;;;;;35.70;94223.00;;;;7393430;19;20157;-75
2022/08/03 12:17:36;;;;;;;2.67;2.10;;;;;36.00;94225.00;;;;7391068;19;20665;-76
2022/08/03 12:20:19;;;;;;;2.65;1.80;;;;;35.90;94230.00;;;;7391170;19;20144;-75
2022/08/03 12:23:05;;;;;;;3.33;2.10;;;;;35.30;94217.00;;;;7393582;19;20137;-76
2022/08/03 12:25:43;;;;;;;2.03;1.60;;;;;35.80;94218.00;;;;7395953;19;20124;-74
2022/08/03 12:28:17;;;;;;;2.35;2.15;;;;;35.70;94228.00;;;;7393467;19;20520;-77
2022/08/03 12:31:09;;;;;;;2.10;1.90;;;;;34.90;94224.00;;;;7392004;19;20211;-75
2022/08/03 12:34:02;;;;;;;3.75;1.80;;;;;35.30;94226.00;;;;7394570;19;20606;-74
2022/08/03 12:36:37;;;;;;;2.20;2.00;;;;;35.00;94223.00;;;;7392781;19;20152;-76
2022/08/03 12:39:30;;;;;;;4.95;2.10;;;;;35.60;94214.00;;;;7393412;19;20167;-75
2022/08/03 12:46:21;;;;;;;3.63;2.20;;;;;35.80;94213.00;;;;7381427;19;20219;-75
2022/08/03 12:49:03;;;;;;;2.63;2.10;;;;;34.40;94237.00;;;;7393140;19;20129;-75
2022/08/03 12:51:35;;;;;;;5.85;2.22;;;;;33.30;94245.00;;;;7390928;19;20147;-74
2022/08/03 12:54:16;;;;;;;2.38;2.17;;;;;32.80;94248.00;;;;7392979;19;20154;-74
2022/08/03 12:57:04;;;;;;;2.30;1.92;;;;;32.30;94246.00;;;;7393205;19;20146;-75
2022/08/03 12:59:47;;;;;;;2.28;2.00;;;;;32.00;94238.00;;;;7390610;19;20167;-73
2022/08/03 13:02:28;;;;;;;2.58;2.13;;;;;31.90;94223.00;;;;7393155;19;20615;-75
2022/08/03 13:05:13;;;;;;;2.47;1.85;;;;;32.90;94217.00;;;;7395136;19;20144;-74
2022/08/03 13:07:46;;;;;;;4.07;1.98;;;;;33.90;94215.00;;;;7391919;19;20171;-74
2022/08/03 13:10:34;;;;;;;3.13;2.00;;;;;34.60;94212.00;;;;7391079;19;20140;-74
2022/08/03 13:13:03;;;;;;;3.40;1.80;;;;;34.70;94212.00;;;;7393278;19;20770;-75
2022/08/03 13:15:51;;;;;;;3.08;2.10;;;;;35.20;94213.00;;;;7388058;19;20143;-77
2022/08/03 13:18:27;;;;;;;2.50;2.30;;;;;35.50;94224.00;;;;7391377;19;20630;-74
2022/08/03 13:21:04;;;;;;;2.50;1.80;;;;;34.50;94229.00;;;;7390928;19;20136;-75
2022/08/03 13:23:33;;;;;;;2.88;1.73;;;;;34.00;94221.00;;;;7391007;19;20538;-75
2022/08/03 13:26:01;;;;;;;2.38;2.00;;;;;33.70;94229.00;;;;7390123;19;20128;-74